sensor_id;sensor_type;location;lat;lon;timestamp;temperature;humidity
11840;DHT22;5979;50.800;4.904;2022-08-19T00:00:36;19.40;99.90
11840;DHT22;5979;50.800;4.904;2022-08-19T00:03:02;19.30;99.90
11840;DHT22;5979;50.800;4.904;2022-08-19T00:05:28;19.30;99.90
11840;DHT22;5979;50.800;4.904;2022-08-19T00:07:54;19.30;99.90
11840;DHT22;5979;50.800;4.904;2022-08-19T00:10:20;19.30;99.90
11840;DHT22;5979;50.800;4.904;2022-08-19T00:12:46;19.20;99.90
11840;DHT22;5979;50.800;4.904;2022-08-19T00:15:14;19.20;99.90
11840;DHT22;5979;50.800;4.904;2022-08-19T00:17:41;19.20;99.90
11840;DHT22;5979;50.800;4.904;2022-08-19T00:20:10;19.10;99.90
11840;DHT22;5979;50.800;4.904;2022-08-19T00:22:37;19.10;99.90
11840;DHT22;5979;50.800;4.904;2022-08-19T00:25:05;19.10;99.90
11840;DHT22;5979;50.800;4.904;2022-08-19T00:27:31;19.00;99.90
11840;DHT22;5979;50.800;4.904;2022-08-19T00:29:57;19.10;99.90
11840;DHT22;5979;50.800;4.904;2022-08-19T00:32:24;19.00;99.90
11840;DHT22;5979;50.800;4.904;2022-08-19T00:34:51;19.00;99.90
11840;DHT22;5979;50.800;4.904;2022-08-19T00:37:20;19.00;99.90
11840;DHT22;5979;50.800;4.904;2022-08-19T00:39:48;19.00;99.90
11840;DHT22;5979;50.800;4.904;2022-08-19T00:42:14;18.90;99.90
11840;DHT22;5979;50.800;4.904;2022-08-19T00:44:40;18.90;99.90
11840;DHT22;5979;50.800;4.904;2022-08-19T00:47:06;18.90;99.90
11840;DHT22;5979;50.800;4.904;2022-08-19T00:49:45;18.90;99.90
11840;DHT22;5979;50.800;4.904;2022-08-19T00:52:21;18.80;99.90
11840;DHT22;5979;50.800;4.904;2022-08-19T00:54:48;18.90;99.90
11840;DHT22;5979;50.800;4.904;2022-08-19T00:57:17;18.90;99.90
11840;DHT22;5979;50.800;4.904;2022-08-19T00:59:47;18.80;99.90
11840;DHT22;5979;50.800;4.904;2022-08-19T01:02:15;18.90;99.90
11840;DHT22;5979;50.800;4.904;2022-08-19T01:04:40;18.90;99.90
11840;DHT22;5979;50.800;4.904;2022-08-19T01:07:07;18.90;99.90
11840;DHT22;5979;50.800;4.904;2022-08-19T01:09:33;18.80;99.90
11840;DHT22;5979;50.800;4.904;2022-08-19T01:11:59;18.70;99.90
11840;DHT22;5979;50.800;4.904;2022-08-19T01:14:25;18.70;99.90
11840;DHT22;5979;50.800;4.904;2022-08-19T01:16:52;18.70;99.90
11840;DHT22;5979;50.800;4.904;2022-08-19T01:19:33;18.60;99.90
11840;DHT22;5979;50.800;4.904;2022-08-19T01:22:11;18.60;99.90
11840;DHT22;5979;50.800;4.904;2022-08-19T01:24:38;18.60;99.90
11840;DHT22;5979;50.800;4.904;2022-08-19T01:27:05;18.60;99.90
11840;DHT22;5979;50.800;4.904;2022-08-19T01:29:31;18.60;99.90
11840;DHT22;5979;50.800;4.904;2022-08-19T01:31:57;18.60;99.90
11840;DHT22;5979;50.800;4.904;2022-08-19T01:34:23;18.60;99.90
11840;DHT22;5979;50.800;4.904;2022-08-19T01:36:49;18.60;99.90
11840;DHT22;5979;50.800;4.904;2022-08-19T01:39:22;18.60;99.90
11840;DHT22;5979;50.800;4.904;2022-08-19T01:41:48;18.60;99.90
11840;DHT22;5979;50.800;4.904;2022-08-19T01:44:15;18.60;99.90
11840;DHT22;5979;50.800;4.904;2022-08-19T01:46:42;18.60;99.90
11840;DHT22;5979;50.800;4.904;2022-08-19T01:49:08;18.60;99.90
11840;DHT22;5979;50.800;4.904;2022-08-19T01:51:34;18.70;99.90
11840;DHT22;5979;50.800;4.904;2022-08-19T01:54:00;18.70;99.90
11840;DHT22;5979;50.800;4.904;2022-08-19T01:56:26;18.60;99.90
11840;DHT22;5979;50.800;4.904;2022-08-19T01:58:58;18.60;99.90
11840;DHT22;5979;50.800;4.904;2022-08-19T02:01:25;18.70;99.90
11840;DHT22;5979;50.800;4.904;2022-08-19T02:03:51;18.60;99.90
11840;DHT22;5979;50.800;4.904;2022-08-19T02:06:19;18.60;99.90
11840;DHT22;5979;50.800;4.904;2022-08-19T02:08:45;18.60;99.90
11840;DHT22;5979;50.800;4.904;2022-08-19T02:11:22;18.60;99.90
11840;DHT22;5979;50.800;4.904;2022-08-19T02:13:48;18.60;99.90
11840;DHT22;5979;50.800;4.904;2022-08-19T02:16:16;18.60;99.90
11840;DHT22;5979;50.800;4.904;2022-08-19T02:18:42;18.60;99.90
11840;DHT22;5979;50.800;4.904;2022-08-19T02:21:08;18.60;99.90
11840;DHT22;5979;50.800;4.904;2022-08-19T02:23:33;18.60;99.90
11840;DHT22;5979;50.800;4.904;2022-08-19T02:25:59;18.60;99.90
11840;DHT22;5979;50.800;4.904;2022-08-19T02:28:24;18.60;99.90
11840;DHT22;5979;50.800;4.904;2022-08-19T02:30:50;18.60;99.90
11840;DHT22;5979;50.800;4.904;2022-08-19T02:33:16;18.60;99.90
11840;DHT22;5979;50.800;4.904;2022-08-19T02:35:44;18.50;99.90
11840;DHT22;5979;50.800;4.904;2022-08-19T02:38:09;18.50;99.90
11840;DHT22;5979;50.800;4.904;2022-08-19T02:41:04;18.50;99.90
11840;DHT22;5979;50.800;4.904;2022-08-19T02:43:32;18.50;99.90
11840;DHT22;5979;50.800;4.904;2022-08-19T02:46:01;18.40;99.90
11840;DHT22;5979;50.800;4.904;2022-08-19T02:48:27;18.40;99.90
11840;DHT22;5979;50.800;4.904;2022-08-19T02:50:53;18.40;99.90
11840;DHT22;5979;50.800;4.904;2022-08-19T02:53:24;18.40;99.90
11840;DHT22;5979;50.800;4.904;2022-08-19T02:55:51;18.40;99.90
11840;DHT22;5979;50.800;4.904;2022-08-19T02:58:17;18.30;99.90
11840;DHT22;5979;50.800;4.904;2022-08-19T03:00:52;18.30;99.90
11840;DHT22;5979;50.800;4.904;2022-08-19T03:03:18;18.30;99.90
11840;DHT22;5979;50.800;4.904;2022-08-19T03:05:45;18.30;99.90
11840;DHT22;5979;50.800;4.904;2022-08-19T03:08:11;18.30;99.90
11840;DHT22;5979;50.800;4.904;2022-08-19T03:10:47;18.20;99.90
11840;DHT22;5979;50.800;4.904;2022-08-19T03:13:15;18.20;99.90
11840;DHT22;5979;50.800;4.904;2022-08-19T03:15:46;18.20;99.90
11840;DHT22;5979;50.800;4.904;2022-08-19T03:18:13;18.20;99.90
11840;DHT22;5979;50.800;4.904;2022-08-19T03:20:48;18.20;99.90
11840;DHT22;5979;50.800;4.904;2022-08-19T03:23:15;18.20;99.90
11840;DHT22;5979;50.800;4.904;2022-08-19T03:25:44;18.20;99.90
11840;DHT22;5979;50.800;4.904;2022-08-19T03:28:12;18.10;99.90
11840;DHT22;5979;50.800;4.904;2022-08-19T03:30:39;18.10;99.90
11840;DHT22;5979;50.800;4.904;2022-08-19T03:33:07;18.00;99.90
11840;DHT22;5979;50.800;4.904;2022-08-19T03:35:33;18.00;99.90
11840;DHT22;5979;50.800;4.904;2022-08-19T03:38:00;18.00;99.90
11840;DHT22;5979;50.800;4.904;2022-08-19T03:40:26;18.00;99.90
11840;DHT22;5979;50.800;4.904;2022-08-19T03:42:51;18.00;99.90
11840;DHT22;5979;50.800;4.904;2022-08-19T03:45:17;18.00;99.90
11840;DHT22;5979;50.800;4.904;2022-08-19T03:47:43;18.00;99.90
11840;DHT22;5979;50.800;4.904;2022-08-19T03:50:09;18.00;99.90
11840;DHT22;5979;50.800;4.904;2022-08-19T03:52:34;18.00;99.90
11840;DHT22;5979;50.800;4.904;2022-08-19T03:55:02;18.00;99.90
11840;DHT22;5979;50.800;4.904;2022-08-19T03:57:27;18.00;99.90
11840;DHT22;5979;50.800;4.904;2022-08-19T03:59:53;18.00;99.90
11840;DHT22;5979;50.800;4.904;2022-08-19T04:02:19;18.00;99.90
11840;DHT22;5979;50.800;4.904;2022-08-19T04:04:45;18.00;99.90
11840;DHT22;5979;50.800;4.904;2022-08-19T04:07:12;17.90;99.90
11840;DHT22;5979;50.800;4.904;2022-08-19T04:09:41;18.00;99.90
11840;DHT22;5979;50.800;4.904;2022-08-19T04:12:07;17.90;99.90
11840;DHT22;5979;50.800;4.904;2022-08-19T04:14:33;17.90;99.90
11840;DHT22;5979;50.800;4.904;2022-08-19T04:17:00;17.90;99.90
11840;DHT22;5979;50.800;4.904;2022-08-19T04:19:28;17.90;99.90
11840;DHT22;5979;50.800;4.904;2022-08-19T04:21:54;17.90;99.90
11840;DHT22;5979;50.800;4.904;2022-08-19T04:24:21;17.90;99.90
11840;DHT22;5979;50.800;4.904;2022-08-19T04:26:48;17.80;99.90
11840;DHT22;5979;50.800;4.904;2022-08-19T04:29:20;17.80;99.90
11840;DHT22;5979;50.800;4.904;2022-08-19T04:31:47;17.80;99.90
11840;DHT22;5979;50.800;4.904;2022-08-19T04:34:16;17.80;99.90
11840;DHT22;5979;50.800;4.904;2022-08-19T04:36:43;17.80;99.90
11840;DHT22;5979;50.800;4.904;2022-08-19T04:39:19;17.80;99.90
11840;DHT22;5979;50.800;4.904;2022-08-19T04:41:45;17.80;99.90
11840;DHT22;5979;50.800;4.904;2022-08-19T04:44:31;17.70;99.90
11840;DHT22;5979;50.800;4.904;2022-08-19T04:46:57;17.70;99.90
11840;DHT22;5979;50.800;4.904;2022-08-19T04:49:23;17.70;99.90
11840;DHT22;5979;50.800;4.904;2022-08-19T04:51:51;17.70;99.90
11840;DHT22;5979;50.800;4.904;2022-08-19T04:54:19;17.70;99.90
11840;DHT22;5979;50.800;4.904;2022-08-19T04:56:49;17.70;99.90
11840;DHT22;5979;50.800;4.904;2022-08-19T04:59:16;17.60;99.90
11840;DHT22;5979;50.800;4.904;2022-08-19T05:01:42;17.60;99.90
11840;DHT22;5979;50.800;4.904;2022-08-19T05:04:09;17.70;99.90
11840;DHT22;5979;50.800;4.904;2022-08-19T05:06:35;17.70;99.90
11840;DHT22;5979;50.800;4.904;2022-08-19T05:09:04;17.70;99.90
11840;DHT22;5979;50.800;4.904;2022-08-19T05:11:33;17.70;99.90
11840;DHT22;5979;50.800;4.904;2022-08-19T05:13:59;17.80;99.90
11840;DHT22;5979;50.800;4.904;2022-08-19T05:16:26;17.80;99.90
11840;DHT22;5979;50.800;4.904;2022-08-19T05:18:52;17.80;99.90
11840;DHT22;5979;50.800;4.904;2022-08-19T05:21:38;17.90;99.90
11840;DHT22;5979;50.800;4.904;2022-08-19T05:24:23;18.00;99.90
11840;DHT22;5979;50.800;4.904;2022-08-19T05:26:50;18.00;99.90
11840;DHT22;5979;50.800;4.904;2022-08-19T05:29:20;18.20;99.90
11840;DHT22;5979;50.800;4.904;2022-08-19T05:31:47;18.40;99.90
11840;DHT22;5979;50.800;4.904;2022-08-19T05:34:15;18.60;99.90
11840;DHT22;5979;50.800;4.904;2022-08-19T05:36:44;18.80;99.90
11840;DHT22;5979;50.800;4.904;2022-08-19T05:39:13;19.00;99.90
11840;DHT22;5979;50.800;4.904;2022-08-19T05:41:46;19.10;99.90
11840;DHT22;5979;50.800;4.904;2022-08-19T05:44:12;19.10;99.90
11840;DHT22;5979;50.800;4.904;2022-08-19T05:46:39;19.00;99.90
11840;DHT22;5979;50.800;4.904;2022-08-19T05:49:06;19.00;99.90
11840;DHT22;5979;50.800;4.904;2022-08-19T05:51:33;19.00;99.90
11840;DHT22;5979;50.800;4.904;2022-08-19T05:54:03;19.10;99.90
11840;DHT22;5979;50.800;4.904;2022-08-19T05:56:29;19.30;99.90
11840;DHT22;5979;50.800;4.904;2022-08-19T05:58:56;19.50;99.90
11840;DHT22;5979;50.800;4.904;2022-08-19T06:01:24;19.70;99.90
11840;DHT22;5979;50.800;4.904;2022-08-19T06:03:50;19.90;99.90
11840;DHT22;5979;50.800;4.904;2022-08-19T06:06:16;20.20;99.90
11840;DHT22;5979;50.800;4.904;2022-08-19T06:08:42;20.30;99.90
11840;DHT22;5979;50.800;4.904;2022-08-19T06:12:00;20.50;99.90
11840;DHT22;5979;50.800;4.904;2022-08-19T06:14:09;20.70;99.90
11840;DHT22;5979;50.800;4.904;2022-08-19T06:16:36;21.00;99.90
11840;DHT22;5979;50.800;4.904;2022-08-19T06:19:06;21.20;99.90
11840;DHT22;5979;50.800;4.904;2022-08-19T06:21:34;21.40;99.90
11840;DHT22;5979;50.800;4.904;2022-08-19T06:24:01;21.60;99.90
11840;DHT22;5979;50.800;4.904;2022-08-19T06:26:27;21.80;99.90
11840;DHT22;5979;50.800;4.904;2022-08-19T06:28:53;22.00;99.90
11840;DHT22;5979;50.800;4.904;2022-08-19T06:31:24;22.10;99.90
11840;DHT22;5979;50.800;4.904;2022-08-19T06:33:50;22.20;99.90
11840;DHT22;5979;50.800;4.904;2022-08-19T06:36:25;22.30;99.90
11840;DHT22;5979;50.800;4.904;2022-08-19T06:39:03;22.40;99.90
11840;DHT22;5979;50.800;4.904;2022-08-19T06:41:30;22.50;99.90
11840;DHT22;5979;50.800;4.904;2022-08-19T06:43:58;22.60;99.90
11840;DHT22;5979;50.800;4.904;2022-08-19T06:46:24;22.80;99.90
11840;DHT22;5979;50.800;4.904;2022-08-19T06:48:49;22.90;99.90
11840;DHT22;5979;50.800;4.904;2022-08-19T06:51:17;23.00;99.90
11840;DHT22;5979;50.800;4.904;2022-08-19T06:53:50;23.00;99.90
11840;DHT22;5979;50.800;4.904;2022-08-19T06:56:18;23.00;99.90
11840;DHT22;5979;50.800;4.904;2022-08-19T06:58:45;23.00;99.90
11840;DHT22;5979;50.800;4.904;2022-08-19T07:01:12;23.00;99.90
11840;DHT22;5979;50.800;4.904;2022-08-19T07:03:41;23.10;99.90
11840;DHT22;5979;50.800;4.904;2022-08-19T07:06:10;23.20;99.90
11840;DHT22;5979;50.800;4.904;2022-08-19T07:08:37;23.20;99.90
11840;DHT22;5979;50.800;4.904;2022-08-19T07:11:10;23.30;99.90
11840;DHT22;5979;50.800;4.904;2022-08-19T07:13:37;23.40;99.90
11840;DHT22;5979;50.800;4.904;2022-08-19T07:16:05;23.40;99.90
11840;DHT22;5979;50.800;4.904;2022-08-19T07:18:31;23.40;99.90
11840;DHT22;5979;50.800;4.904;2022-08-19T07:21:12;23.50;99.90
11840;DHT22;5979;50.800;4.904;2022-08-19T07:23:39;23.50;99.90
11840;DHT22;5979;50.800;4.904;2022-08-19T07:26:14;23.50;99.90
11840;DHT22;5979;50.800;4.904;2022-08-19T07:28:40;23.50;99.90
11840;DHT22;5979;50.800;4.904;2022-08-19T07:31:07;23.50;99.90
11840;DHT22;5979;50.800;4.904;2022-08-19T07:33:33;23.60;99.90
11840;DHT22;5979;50.800;4.904;2022-08-19T07:36:04;23.80;99.90
11840;DHT22;5979;50.800;4.904;2022-08-19T07:38:31;24.00;99.90
11840;DHT22;5979;50.800;4.904;2022-08-19T07:40:57;24.10;99.90
11840;DHT22;5979;50.800;4.904;2022-08-19T07:43:22;24.20;99.90
11840;DHT22;5979;50.800;4.904;2022-08-19T07:45:53;24.20;99.90
11840;DHT22;5979;50.800;4.904;2022-08-19T07:48:25;24.10;99.90
11840;DHT22;5979;50.800;4.904;2022-08-19T07:50:56;24.00;99.90
11840;DHT22;5979;50.800;4.904;2022-08-19T07:53:23;24.00;99.90
11840;DHT22;5979;50.800;4.904;2022-08-19T07:55:49;24.00;99.90
11840;DHT22;5979;50.800;4.904;2022-08-19T07:58:19;24.00;99.90
11840;DHT22;5979;50.800;4.904;2022-08-19T08:00:48;24.10;99.90
11840;DHT22;5979;50.800;4.904;2022-08-19T08:03:16;24.10;99.90
11840;DHT22;5979;50.800;4.904;2022-08-19T08:05:43;24.20;99.90
11840;DHT22;5979;50.800;4.904;2022-08-19T08:08:27;24.40;99.90
11840;DHT22;5979;50.800;4.904;2022-08-19T08:11:13;24.80;99.90
11840;DHT22;5979;50.800;4.904;2022-08-19T08:13:42;25.10;99.90
11840;DHT22;5979;50.800;4.904;2022-08-19T08:16:08;25.10;99.90
11840;DHT22;5979;50.800;4.904;2022-08-19T08:18:34;25.10;99.90
11840;DHT22;5979;50.800;4.904;2022-08-19T08:21:06;25.10;99.90
11840;DHT22;5979;50.800;4.904;2022-08-19T08:23:32;25.00;99.90
11840;DHT22;5979;50.800;4.904;2022-08-19T08:25:58;25.00;99.90
11840;DHT22;5979;50.800;4.904;2022-08-19T08:28:25;25.10;99.90
11840;DHT22;5979;50.800;4.904;2022-08-19T08:30:52;25.00;99.90
11840;DHT22;5979;50.800;4.904;2022-08-19T08:33:21;24.90;99.90
11840;DHT22;5979;50.800;4.904;2022-08-19T08:35:47;24.60;99.90
11840;DHT22;5979;50.800;4.904;2022-08-19T08:38:14;24.40;99.90
11840;DHT22;5979;50.800;4.904;2022-08-19T08:40:44;24.30;99.90
11840;DHT22;5979;50.800;4.904;2022-08-19T08:43:29;24.30;99.90
11840;DHT22;5979;50.800;4.904;2022-08-19T08:46:17;24.60;99.90
11840;DHT22;5979;50.800;4.904;2022-08-19T08:48:49;24.90;99.90
11840;DHT22;5979;50.800;4.904;2022-08-19T08:51:48;25.10;99.90
11840;DHT22;5979;50.800;4.904;2022-08-19T08:54:20;25.50;99.90
11840;DHT22;5979;50.800;4.904;2022-08-19T08:56:47;25.60;99.90
11840;DHT22;5979;50.800;4.904;2022-08-19T08:59:33;25.90;99.90
11840;DHT22;5979;50.800;4.904;2022-08-19T09:02:00;26.00;99.90
11840;DHT22;5979;50.800;4.904;2022-08-19T09:04:26;26.00;99.90
11840;DHT22;5979;50.800;4.904;2022-08-19T09:09:52;26.40;99.90
11840;DHT22;5979;50.800;4.904;2022-08-19T09:12:34;26.60;99.90
11840;DHT22;5979;50.800;4.904;2022-08-19T09:15:07;26.70;99.90
11840;DHT22;5979;50.800;4.904;2022-08-19T09:17:34;26.70;99.90
11840;DHT22;5979;50.800;4.904;2022-08-19T09:20:05;26.70;99.90
11840;DHT22;5979;50.800;4.904;2022-08-19T09:22:36;27.00;99.90
11840;DHT22;5979;50.800;4.904;2022-08-19T09:25:03;27.10;99.90
11840;DHT22;5979;50.800;4.904;2022-08-19T09:27:30;27.00;99.90
11840;DHT22;5979;50.800;4.904;2022-08-19T09:29:58;26.80;99.90
11840;DHT22;5979;50.800;4.904;2022-08-19T09:32:24;26.60;99.90
11840;DHT22;5979;50.800;4.904;2022-08-19T09:34:51;26.50;99.90
11840;DHT22;5979;50.800;4.904;2022-08-19T09:37:20;26.40;99.90
11840;DHT22;5979;50.800;4.904;2022-08-19T09:39:47;26.30;99.90
11840;DHT22;5979;50.800;4.904;2022-08-19T09:42:12;26.30;99.90
11840;DHT22;5979;50.800;4.904;2022-08-19T09:44:41;26.50;99.90
11840;DHT22;5979;50.800;4.904;2022-08-19T09:47:07;26.70;99.90
11840;DHT22;5979;50.800;4.904;2022-08-19T09:49:33;26.40;99.90
11840;DHT22;5979;50.800;4.904;2022-08-19T09:52:00;26.30;99.90
11840;DHT22;5979;50.800;4.904;2022-08-19T09:54:26;26.30;99.90
11840;DHT22;5979;50.800;4.904;2022-08-19T09:56:57;26.20;99.90
11840;DHT22;5979;50.800;4.904;2022-08-19T09:59:23;26.20;99.90
11840;DHT22;5979;50.800;4.904;2022-08-19T10:01:49;26.10;99.90
11840;DHT22;5979;50.800;4.904;2022-08-19T10:04:16;26.10;99.90
11840;DHT22;5979;50.800;4.904;2022-08-19T10:06:42;26.20;99.90
11840;DHT22;5979;50.800;4.904;2022-08-19T10:09:09;26.30;99.90
11840;DHT22;5979;50.800;4.904;2022-08-19T10:11:38;26.30;99.90
11840;DHT22;5979;50.800;4.904;2022-08-19T10:14:05;26.30;99.90
11840;DHT22;5979;50.800;4.904;2022-08-19T10:16:31;26.30;99.90
11840;DHT22;5979;50.800;4.904;2022-08-19T10:18:57;26.40;99.90
11840;DHT22;5979;50.800;4.904;2022-08-19T10:21:26;26.60;99.90
11840;DHT22;5979;50.800;4.904;2022-08-19T10:23:54;26.40;99.90
11840;DHT22;5979;50.800;4.904;2022-08-19T10:26:26;26.30;99.90
11840;DHT22;5979;50.800;4.904;2022-08-19T10:28:52;26.30;99.90
11840;DHT22;5979;50.800;4.904;2022-08-19T10:31:22;26.40;99.90
11840;DHT22;5979;50.800;4.904;2022-08-19T10:33:49;26.30;99.90
11840;DHT22;5979;50.800;4.904;2022-08-19T10:36:17;26.20;99.90
11840;DHT22;5979;50.800;4.904;2022-08-19T10:38:44;26.20;99.90
11840;DHT22;5979;50.800;4.904;2022-08-19T10:41:14;26.20;99.90
11840;DHT22;5979;50.800;4.904;2022-08-19T10:43:40;26.10;99.90
11840;DHT22;5979;50.800;4.904;2022-08-19T10:46:12;26.20;99.90
11840;DHT22;5979;50.800;4.904;2022-08-19T10:48:38;26.20;99.90
11840;DHT22;5979;50.800;4.904;2022-08-19T10:51:04;26.40;99.90
11840;DHT22;5979;50.800;4.904;2022-08-19T10:53:49;26.50;99.90
11840;DHT22;5979;50.800;4.904;2022-08-19T10:56:15;26.60;99.90
11840;DHT22;5979;50.800;4.904;2022-08-19T10:58:59;26.60;99.90
11840;DHT22;5979;50.800;4.904;2022-08-19T11:01:26;26.70;99.90
11840;DHT22;5979;50.800;4.904;2022-08-19T11:03:52;26.80;99.90
11840;DHT22;5979;50.800;4.904;2022-08-19T11:06:18;26.90;99.90
11840;DHT22;5979;50.800;4.904;2022-08-19T11:08:45;26.90;99.90
11840;DHT22;5979;50.800;4.904;2022-08-19T11:11:11;27.00;99.90
11840;DHT22;5979;50.800;4.904;2022-08-19T11:13:40;27.00;99.90
11840;DHT22;5979;50.800;4.904;2022-08-19T11:16:12;27.20;99.90
11840;DHT22;5979;50.800;4.904;2022-08-19T11:18:42;27.30;99.90
11840;DHT22;5979;50.800;4.904;2022-08-19T11:21:14;27.30;99.90
11840;DHT22;5979;50.800;4.904;2022-08-19T11:23:42;27.30;99.90
11840;DHT22;5979;50.800;4.904;2022-08-19T11:26:08;27.40;99.90
11840;DHT22;5979;50.800;4.904;2022-08-19T11:28:35;27.30;99.90
11840;DHT22;5979;50.800;4.904;2022-08-19T11:31:01;27.30;99.90
11840;DHT22;5979;50.800;4.904;2022-08-19T11:33:29;27.40;99.90
11840;DHT22;5979;50.800;4.904;2022-08-19T11:35:57;27.50;99.90
11840;DHT22;5979;50.800;4.904;2022-08-19T11:38:24;27.50;99.90
11840;DHT22;5979;50.800;4.904;2022-08-19T11:41:00;27.50;99.90
11840;DHT22;5979;50.800;4.904;2022-08-19T11:43:26;27.50;99.90
11840;DHT22;5979;50.800;4.904;2022-08-19T11:45:56;27.30;99.90
11840;DHT22;5979;50.800;4.904;2022-08-19T11:48:22;27.10;99.90
11840;DHT22;5979;50.800;4.904;2022-08-19T11:50:52;27.00;99.90
11840;DHT22;5979;50.800;4.904;2022-08-19T11:53:20;27.00;99.90
11840;DHT22;5979;50.800;4.904;2022-08-19T11:55:47;27.00;99.90
11840;DHT22;5979;50.800;4.904;2022-08-19T11:58:14;26.90;99.90
11840;DHT22;5979;50.800;4.904;2022-08-19T12:00:41;26.90;99.90
11840;DHT22;5979;50.800;4.904;2022-08-19T12:03:07;27.00;99.90
11840;DHT22;5979;50.800;4.904;2022-08-19T12:05:33;26.90;99.90
11840;DHT22;5979;50.800;4.904;2022-08-19T12:07:59;26.90;99.90
11840;DHT22;5979;50.800;4.904;2022-08-19T12:10:25;27.00;99.90
11840;DHT22;5979;50.800;4.904;2022-08-19T12:12:50;26.90;99.90
11840;DHT22;5979;50.800;4.904;2022-08-19T12:15:16;26.80;99.90
11840;DHT22;5979;50.800;4.904;2022-08-19T12:17:42;26.60;99.90
11840;DHT22;5979;50.800;4.904;2022-08-19T12:20:09;26.50;99.90
11840;DHT22;5979;50.800;4.904;2022-08-19T12:22:36;26.30;99.90
11840;DHT22;5979;50.800;4.904;2022-08-19T12:25:03;26.20;99.90
11840;DHT22;5979;50.800;4.904;2022-08-19T12:27:30;26.20;99.90
11840;DHT22;5979;50.800;4.904;2022-08-19T12:29:55;26.30;99.90
11840;DHT22;5979;50.800;4.904;2022-08-19T12:32:22;26.30;99.90
11840;DHT22;5979;50.800;4.904;2022-08-19T12:34:50;26.30;99.90
11840;DHT22;5979;50.800;4.904;2022-08-19T12:37:15;26.10;99.90
11840;DHT22;5979;50.800;4.904;2022-08-19T12:39:42;26.00;99.90
11840;DHT22;5979;50.800;4.904;2022-08-19T12:42:10;26.00;99.90
11840;DHT22;5979;50.800;4.904;2022-08-19T12:44:38;26.10;99.90
11840;DHT22;5979;50.800;4.904;2022-08-19T12:47:05;26.10;99.90
11840;DHT22;5979;50.800;4.904;2022-08-19T12:49:32;26.00;99.90
11840;DHT22;5979;50.800;4.904;2022-08-19T12:52:03;26.00;99.90
11840;DHT22;5979;50.800;4.904;2022-08-19T12:54:30;26.10;99.90
11840;DHT22;5979;50.800;4.904;2022-08-19T12:56:57;26.10;99.90
11840;DHT22;5979;50.800;4.904;2022-08-19T12:59:23;26.20;99.90
11840;DHT22;5979;50.800;4.904;2022-08-19T13:01:49;26.20;99.90
11840;DHT22;5979;50.800;4.904;2022-08-19T13:04:14;26.30;99.90
11840;DHT22;5979;50.800;4.904;2022-08-19T13:06:41;26.40;99.90
11840;DHT22;5979;50.800;4.904;2022-08-19T13:09:07;26.60;99.90
11840;DHT22;5979;50.800;4.904;2022-08-19T13:11:33;26.80;99.90
11840;DHT22;5979;50.800;4.904;2022-08-19T13:14:01;26.90;99.90
11840;DHT22;5979;50.800;4.904;2022-08-19T13:16:27;26.90;99.90
11840;DHT22;5979;50.800;4.904;2022-08-19T13:18:54;27.10;99.90
11840;DHT22;5979;50.800;4.904;2022-08-19T13:21:22;27.20;99.90
11840;DHT22;5979;50.800;4.904;2022-08-19T13:23:48;27.20;99.90
11840;DHT22;5979;50.800;4.904;2022-08-19T13:26:15;27.40;99.90
11840;DHT22;5979;50.800;4.904;2022-08-19T13:28:42;27.40;99.90
11840;DHT22;5979;50.800;4.904;2022-08-19T13:31:28;27.30;99.90
11840;DHT22;5979;50.800;4.904;2022-08-19T13:34:14;27.30;99.90
11840;DHT22;5979;50.800;4.904;2022-08-19T13:36:40;27.40;99.90
11840;DHT22;5979;50.800;4.904;2022-08-19T13:39:07;27.50;99.90
11840;DHT22;5979;50.800;4.904;2022-08-19T13:41:34;27.70;99.90
11840;DHT22;5979;50.800;4.904;2022-08-19T13:44:00;27.90;99.90
11840;DHT22;5979;50.800;4.904;2022-08-19T13:46:25;28.20;99.90
11840;DHT22;5979;50.800;4.904;2022-08-19T13:48:52;28.30;99.90
11840;DHT22;5979;50.800;4.904;2022-08-19T13:51:18;28.30;99.90
11840;DHT22;5979;50.800;4.904;2022-08-19T13:53:44;28.30;99.90
11840;DHT22;5979;50.800;4.904;2022-08-19T13:56:13;28.10;99.90
11840;DHT22;5979;50.800;4.904;2022-08-19T13:58:39;28.00;99.90
11840;DHT22;5979;50.800;4.904;2022-08-19T14:01:05;27.80;99.90
11840;DHT22;5979;50.800;4.904;2022-08-19T14:03:32;27.80;99.90
11840;DHT22;5979;50.800;4.904;2022-08-19T14:05:58;27.80;99.90
11840;DHT22;5979;50.800;4.904;2022-08-19T14:08:24;27.80;99.90
11840;DHT22;5979;50.800;4.904;2022-08-19T14:10:50;27.80;99.90
11840;DHT22;5979;50.800;4.904;2022-08-19T14:13:19;27.80;99.90
11840;DHT22;5979;50.800;4.904;2022-08-19T14:15:45;27.70;99.90
11840;DHT22;5979;50.800;4.904;2022-08-19T14:18:12;27.70;99.90
11840;DHT22;5979;50.800;4.904;2022-08-19T14:20:39;27.60;99.90
11840;DHT22;5979;50.800;4.904;2022-08-19T14:23:04;27.60;99.90
11840;DHT22;5979;50.800;4.904;2022-08-19T14:25:33;27.50;99.90
11840;DHT22;5979;50.800;4.904;2022-08-19T14:28:00;27.50;99.90
11840;DHT22;5979;50.800;4.904;2022-08-19T14:30:31;27.40;99.90
11840;DHT22;5979;50.800;4.904;2022-08-19T14:32:59;27.40;99.90
11840;DHT22;5979;50.800;4.904;2022-08-19T14:35:26;27.30;99.90
11840;DHT22;5979;50.800;4.904;2022-08-19T14:37:52;27.20;99.90
11840;DHT22;5979;50.800;4.904;2022-08-19T14:40:25;27.10;99.90
11840;DHT22;5979;50.800;4.904;2022-08-19T14:42:52;27.10;99.90
11840;DHT22;5979;50.800;4.904;2022-08-19T14:45:21;27.00;99.90
11840;DHT22;5979;50.800;4.904;2022-08-19T14:47:46;26.90;99.90
11840;DHT22;5979;50.800;4.904;2022-08-19T14:50:12;26.80;99.90
11840;DHT22;5979;50.800;4.904;2022-08-19T14:52:39;26.80;99.90
11840;DHT22;5979;50.800;4.904;2022-08-19T14:55:05;26.80;99.90
11840;DHT22;5979;50.800;4.904;2022-08-19T14:57:31;26.80;99.90
11840;DHT22;5979;50.800;4.904;2022-08-19T14:59:56;26.80;99.90
11840;DHT22;5979;50.800;4.904;2022-08-19T15:02:22;26.80;99.90
11840;DHT22;5979;50.800;4.904;2022-08-19T15:04:48;26.80;99.90
11840;DHT22;5979;50.800;4.904;2022-08-19T15:07:16;26.70;99.90
11840;DHT22;5979;50.800;4.904;2022-08-19T15:09:41;26.60;99.90
11840;DHT22;5979;50.800;4.904;2022-08-19T15:12:07;26.50;99.90
11840;DHT22;5979;50.800;4.904;2022-08-19T15:14:36;26.40;99.90
11840;DHT22;5979;50.800;4.904;2022-08-19T15:17:03;26.30;99.90
11840;DHT22;5979;50.800;4.904;2022-08-19T15:19:31;26.20;99.90
11840;DHT22;5979;50.800;4.904;2022-08-19T15:21:58;26.20;99.90
11840;DHT22;5979;50.800;4.904;2022-08-19T15:24:24;26.10;99.90
11840;DHT22;5979;50.800;4.904;2022-08-19T15:26:53;26.10;99.90
11840;DHT22;5979;50.800;4.904;2022-08-19T15:29:21;26.10;99.90
11840;DHT22;5979;50.800;4.904;2022-08-19T15:31:50;26.10;99.90
11840;DHT22;5979;50.800;4.904;2022-08-19T15:34:16;26.10;99.90
11840;DHT22;5979;50.800;4.904;2022-08-19T15:36:42;26.10;99.90
11840;DHT22;5979;50.800;4.904;2022-08-19T15:39:08;26.00;99.90
11840;DHT22;5979;50.800;4.904;2022-08-19T15:41:35;26.00;99.90
11840;DHT22;5979;50.800;4.904;2022-08-19T15:44:07;25.90;99.90
11840;DHT22;5979;50.800;4.904;2022-08-19T15:46:35;25.80;99.90
11840;DHT22;5979;50.800;4.904;2022-08-19T15:49:01;25.60;99.90
11840;DHT22;5979;50.800;4.904;2022-08-19T15:51:29;25.60;99.90
11840;DHT22;5979;50.800;4.904;2022-08-19T15:53:55;25.50;99.90